Impacts TAF Board
For situational awareness. Not to be used for flight planning purposes.
IDs:

KORD - Chicago/O'Hare Intl, IL, US

Issued at 1133 UTC 21 Feb 2019
Updated at 1337 UTC 21 Feb 2019
Potential Impact None Slight Moderate High
Time1251Z 21/14Z 21/15Z 21/16Z 21/17Z 21/18Z 21/19Z 21/20Z 21/21Z 21/22Z 21/23Z 22/00Z 22/01Z 22/02Z>>
Type OBS PRVL PRVL PRVL PRVL PRVL PRVL PRVL PRVL PRVL PRVL PRVL PRVL PRVL
VIS 9 >6 >6 >6 >6 >6 >6 >6 >6 >6 >6 >6 >6 >6
CIG -- -- 250 250 250 250 250 250 250 250 250 -- -- --
Cover FEW SCT BKN BKN BKN BKN BKN BKN BKN BKN BKN SCT SCT SCT
FltCat VFR VFR VFR VFR VFR VFR VFR VFR VFR VFR VFR VFR VFR VFR
WX -- -- -- -- -- -- -- -- -- -- -- -- -- --
WDir 230 250 260 260 260 260 260 260 260 260 260 300 300 300
WSpd 7 10 12 12 12 12 12 12 12 12 12 6 6 6
WGst -- -- 18 18 18 18 18 18 18 18 18 -- -- --
Raw TAF
KORD 211133Z 2112/2218 25010KT P6SM SCT250
  FM211500 26012G18KT P6SM BKN250
  FM220000 30006KT P6SM SCT250
  FM220900 03004KT P6SM SCT100
  FM221700 10007KT P6SM SCT045


Raw METAR
KORD 211251Z 23007KT 9SM FEW200 FEW250 M04/M07 A3008 RMK AO2 SLP192 T10391072
KORD 211151Z 25008KT 9SM SCT250 M04/M07 A3005 RMK AO2 SLP182 4/001 70008 T10391072 10017 21039 51024
KORD 211051Z 24009KT 9SM SCT250 M03/M07 A3003 RMK AO2 SLP176 T10331072

METAR Board
Radar Display
Forecast Discussion
For situational awareness. Not to be used for flight planning purposes.